createdAt,value
2017-08-27T00:00:27.816Z,936.73
2017-08-27T00:00:55.829Z,936.76
2017-08-27T00:01:23.982Z,936.74
2017-08-27T00:01:52.082Z,936.76
2017-08-27T00:02:20.108Z,936.76
2017-08-27T00:02:48.236Z,936.74
2017-08-27T00:03:17.121Z,936.72
2017-08-27T00:03:45.159Z,936.74
2017-08-27T00:04:13.290Z,936.73
2017-08-27T00:04:41.205Z,936.74
2017-08-27T00:05:09.321Z,936.73
2017-08-27T00:05:37.126Z,936.72
2017-08-27T00:06:05.207Z,936.72
2017-08-27T00:06:33.295Z,936.73
2017-08-27T00:07:01.410Z,936.71
2017-08-27T00:07:29.415Z,936.73
2017-08-27T00:07:57.426Z,936.7
2017-08-27T00:08:25.424Z,936.68
2017-08-27T00:08:53.419Z,936.69
2017-08-27T00:09:21.521Z,936.73
2017-08-27T00:09:49.653Z,936.71
2017-08-27T00:10:17.758Z,936.7
2017-08-27T00:10:45.767Z,936.7
2017-08-27T00:11:13.651Z,936.71
2017-08-27T00:11:41.658Z,936.69
2017-08-27T00:12:09.789Z,936.72
2017-08-27T00:12:37.703Z,936.75
2017-08-27T00:13:05.623Z,936.71
2017-08-27T00:13:33.698Z,936.7
2017-08-27T00:14:01.941Z,936.7
2017-08-27T00:14:29.834Z,936.7
2017-08-27T00:14:57.921Z,936.71
2017-08-27T00:15:25.918Z,936.66
2017-08-27T00:15:53.926Z,936.71
2017-08-27T00:16:22.012Z,936.69
2017-08-27T00:16:49.930Z,936.7
2017-08-27T00:17:17.851Z,936.72
2017-08-27T00:17:45.991Z,936.7
2017-08-27T00:18:14.103Z,936.67
2017-08-27T00:18:42.224Z,936.71
2017-08-27T00:19:10.246Z,936.68
2017-08-27T00:19:38.361Z,936.68
2017-08-27T00:20:06.459Z,936.68
2017-08-27T00:20:34.598Z,936.69
2017-08-27T00:21:02.716Z,936.71
2017-08-27T00:21:30.716Z,936.69
2017-08-27T00:21:58.617Z,936.71
2017-08-27T00:22:26.645Z,936.67
2017-08-27T00:22:54.638Z,936.7
2017-08-27T00:23:22.684Z,936.72
2017-08-27T00:23:50.492Z,936.7
2017-08-27T00:24:18.405Z,936.75
2017-08-27T00:24:46.439Z,936.75
2017-08-27T00:25:14.553Z,936.73
2017-08-27T00:25:42.649Z,936.71
2017-08-27T00:26:10.589Z,936.73
2017-08-27T00:26:38.716Z,936.76
2017-08-27T00:27:06.847Z,936.71
2017-08-27T00:27:34.975Z,936.74
2017-08-27T00:28:03.098Z,936.7
2017-08-27T00:28:31.018Z,936.72
2017-08-27T00:28:58.934Z,936.72
2017-08-27T00:29:26.843Z,936.72
2017-08-27T00:29:54.842Z,936.71
2017-08-27T00:30:22.864Z,936.71
2017-08-27T00:30:50.954Z,936.71
2017-08-27T00:31:18.992Z,936.71
2017-08-27T00:31:47.030Z,936.75
2017-08-27T00:32:15.063Z,936.76
2017-08-27T00:32:43.280Z,936.74
2017-08-27T00:33:11.176Z,936.75
2017-08-27T00:33:39.164Z,936.75
2017-08-27T00:34:07.077Z,936.75
2017-08-27T00:34:35.100Z,936.77
2017-08-27T00:35:03.098Z,936.74
2017-08-27T00:35:31.003Z,936.75
2017-08-27T00:35:59.027Z,936.75
2017-08-27T00:36:27.071Z,936.76
2017-08-27T00:36:55.097Z,936.77
2017-08-27T00:37:23.099Z,936.77
2017-08-27T00:37:51.126Z,936.79
2017-08-27T00:38:19.231Z,936.77
2017-08-27T00:38:47.331Z,936.77
2017-08-27T00:39:15.276Z,936.78
2017-08-27T00:39:43.306Z,936.78
2017-08-27T00:40:11.298Z,936.77
2017-08-27T00:40:39.311Z,936.8
2017-08-27T00:41:07.212Z,936.81
2017-08-27T00:41:35.224Z,936.76
2017-08-27T00:42:03.122Z,936.79
2017-08-27T00:42:31.219Z,936.77
2017-08-27T00:42:59.318Z,936.76
2017-08-27T00:43:27.432Z,936.76
2017-08-27T00:43:55.535Z,936.73
2017-08-27T00:44:23.644Z,936.77
2017-08-27T00:44:51.751Z,936.76
2017-08-27T00:45:19.654Z,936.77
2017-08-27T00:45:47.657Z,936.77
2017-08-27T00:46:15.684Z,936.78
2017-08-27T00:46:43.783Z,936.77
2017-08-27T00:47:11.775Z,936.74
2017-08-27T00:47:39.795Z,936.79
2017-08-27T00:48:08.680Z,936.78
2017-08-27T00:48:36.783Z,936.77
2017-08-27T00:49:04.702Z,936.78
2017-08-27T00:49:32.799Z,936.77
2017-08-27T00:50:00.909Z,936.76
2017-08-27T00:50:28.803Z,936.75
2017-08-27T00:50:56.736Z,936.78
2017-08-27T00:51:24.806Z,936.78
2017-08-27T00:51:52.793Z,936.75
2017-08-27T00:52:20.801Z,936.76
2017-08-27T00:52:48.894Z,936.77
2017-08-27T00:53:16.815Z,936.77
2017-08-27T00:53:44.734Z,936.78
2017-08-27T00:54:12.742Z,936.8
2017-08-27T00:54:40.868Z,936.75
2017-08-27T00:55:08.990Z,936.78
2017-08-27T00:55:37.172Z,936.8
2017-08-27T00:56:05.171Z,936.77
2017-08-27T00:56:33.283Z,936.74
2017-08-27T00:57:01.317Z,936.8
2017-08-27T00:57:29.311Z,936.79
2017-08-27T00:57:57.434Z,936.78
2017-08-27T00:58:25.284Z,936.78
2017-08-27T00:58:53.104Z,936.8
2017-08-27T00:59:21.112Z,936.81
2017-08-27T00:59:49.245Z,936.8
2017-08-27T01:00:17.337Z,936.81
2017-08-27T01:00:45.402Z,936.79
2017-08-27T01:01:13.419Z,936.79
2017-08-27T01:01:41.431Z,936.77
2017-08-27T01:02:09.534Z,936.78
2017-08-27T01:02:37.651Z,936.78
2017-08-27T01:03:05.633Z,936.74
2017-08-27T01:03:33.721Z,936.77
2017-08-27T01:04:01.728Z,936.77
2017-08-27T01:04:29.820Z,936.74
2017-08-27T01:04:57.835Z,936.76
2017-08-27T01:05:25.843Z,936.76
2017-08-27T01:05:53.675Z,936.79
2017-08-27T01:06:21.589Z,936.8
2017-08-27T01:06:49.598Z,936.76
2017-08-27T01:07:17.695Z,936.78
2017-08-27T01:07:45.482Z,936.78
2017-08-27T01:08:13.389Z,936.76
2017-08-27T01:08:41.415Z,936.78
2017-08-27T01:09:09.459Z,936.77
2017-08-27T01:09:37.452Z,936.77
2017-08-27T01:10:05.584Z,936.78
2017-08-27T01:10:33.682Z,936.78
2017-08-27T01:11:01.614Z,936.79
2017-08-27T01:11:29.703Z,936.79
2017-08-27T01:11:57.722Z,936.79
2017-08-27T01:12:25.634Z,936.83
2017-08-27T01:12:54.520Z,936.86
2017-08-27T01:13:22.650Z,936.85
2017-08-27T01:13:50.753Z,936.82
2017-08-27T01:14:18.961Z,936.84
2017-08-27T01:14:47.066Z,936.85
2017-08-27T01:15:15.490Z,936.84
2017-08-27T01:15:43.783Z,936.88
2017-08-27T01:16:11.772Z,936.87
2017-08-27T01:16:39.672Z,936.84
2017-08-27T01:17:08.203Z,936.84
2017-08-27T01:17:36.321Z,936.85
2017-08-27T01:18:04.350Z,936.85
2017-08-27T01:18:32.468Z,936.85
2017-08-27T01:19:00.588Z,936.84
2017-08-27T01:19:28.580Z,936.83
2017-08-27T01:19:56.673Z,936.83
2017-08-27T01:20:24.561Z,936.84
2017-08-27T01:20:52.557Z,936.81
2017-08-27T01:21:20.645Z,936.8
2017-08-27T01:21:48.449Z,936.8
2017-08-27T01:22:16.563Z,936.8
2017-08-27T01:22:44.574Z,936.81
2017-08-27T01:23:12.445Z,936.82
2017-08-27T01:23:40.529Z,936.81
2017-08-27T01:24:08.430Z,936.81
2017-08-27T01:24:36.692Z,936.83
2017-08-27T01:25:04.865Z,936.83
2017-08-27T01:25:32.998Z,936.81
2017-08-27T01:26:00.992Z,936.82
2017-08-27T01:26:29.895Z,936.83
2017-08-27T01:26:57.902Z,936.85
2017-08-27T01:27:25.918Z,936.81
2017-08-27T01:27:54.069Z,936.8
2017-08-27T01:28:22.088Z,936.83
2017-08-27T01:28:50.105Z,936.83
2017-08-27T01:29:18.225Z,936.82
2017-08-27T01:29:46.248Z,936.79
2017-08-27T01:30:14.339Z,936.8
2017-08-27T01:30:42.462Z,936.8
2017-08-27T01:31:10.484Z,936.8
2017-08-27T01:31:38.598Z,936.81
2017-08-27T01:32:06.399Z,936.82
2017-08-27T01:32:34.405Z,936.82
2017-08-27T01:33:02.336Z,936.83
2017-08-27T01:33:30.330Z,936.86
2017-08-27T01:33:58.407Z,936.83
2017-08-27T01:34:26.507Z,936.82
2017-08-27T01:34:54.609Z,936.87
2017-08-27T01:35:22.588Z,936.81
2017-08-27T01:35:50.716Z,936.79
2017-08-27T01:36:18.922Z,936.83
2017-08-27T01:36:47.010Z,936.83
2017-08-27T01:37:15.016Z,936.83
2017-08-27T01:37:43.118Z,936.84
2017-08-27T01:38:11.122Z,936.87
2017-08-27T01:38:39.263Z,936.86
2017-08-27T01:39:07.292Z,936.84
2017-08-27T01:39:35.220Z,936.86
2017-08-27T01:40:03.200Z,936.86
2017-08-27T01:40:31.205Z,936.87
2017-08-27T01:40:59.315Z,936.86
2017-08-27T01:41:27.445Z,936.86
2017-08-27T01:41:55.531Z,936.81
2017-08-27T01:42:23.627Z,936.84
2017-08-27T01:42:51.528Z,936.87
2017-08-27T01:43:19.648Z,936.86
2017-08-27T01:43:47.783Z,936.88
2017-08-27T01:44:15.895Z,936.85
2017-08-27T01:44:43.885Z,936.86
2017-08-27T01:45:11.802Z,936.83
2017-08-27T01:45:39.905Z,936.84
2017-08-27T01:46:08.025Z,936.87
2017-08-27T01:46:35.952Z,936.85
2017-08-27T01:47:03.958Z,936.87
2017-08-27T01:47:31.831Z,936.87
2017-08-27T01:47:59.850Z,936.87
2017-08-27T01:48:27.860Z,936.88
2017-08-27T01:48:55.741Z,936.87
2017-08-27T01:49:23.738Z,936.85
2017-08-27T01:49:51.742Z,936.87
2017-08-27T01:50:19.761Z,936.85
2017-08-27T01:50:47.876Z,936.88
2017-08-27T01:51:15.867Z,936.84
2017-08-27T01:51:43.984Z,936.89
2017-08-27T01:52:12.138Z,936.88
2017-08-27T01:52:40.258Z,936.9
2017-08-27T01:53:08.333Z,936.86
2017-08-27T01:53:36.341Z,936.89
2017-08-27T01:54:04.450Z,936.87
2017-08-27T01:54:32.359Z,936.88
2017-08-27T01:55:00.451Z,936.88
2017-08-27T01:55:28.458Z,936.84
2017-08-27T01:55:56.483Z,936.84
2017-08-27T01:56:24.290Z,936.86
2017-08-27T01:56:52.392Z,936.85
2017-08-27T01:57:20.695Z,936.88
2017-08-27T01:57:48.772Z,936.92
2017-08-27T01:58:16.790Z,936.86
2017-08-27T01:58:44.908Z,936.85
2017-08-27T01:59:12.835Z,936.89
2017-08-27T01:59:41.018Z,936.89
2017-08-27T02:00:08.930Z,936.89
2017-08-27T02:00:36.944Z,936.89
2017-08-27T02:01:05.061Z,936.87
2017-08-27T02:01:32.955Z,936.88
2017-08-27T02:02:01.051Z,936.87
2017-08-27T02:02:29.168Z,936.87
2017-08-27T02:02:57.154Z,936.88
2017-08-27T02:03:25.178Z,936.88
2017-08-27T02:03:53.261Z,936.86
2017-08-27T02:04:21.278Z,936.83
2017-08-27T02:04:49.266Z,936.86
2017-08-27T02:05:17.380Z,936.86
2017-08-27T02:05:45.512Z,936.86
2017-08-27T02:06:13.557Z,936.87
2017-08-27T02:06:41.671Z,936.89
2017-08-27T02:07:09.609Z,936.84
2017-08-27T02:07:38.256Z,936.88
2017-08-27T02:08:06.576Z,936.85
2017-08-27T02:08:34.570Z,936.84
2017-08-27T02:09:02.572Z,936.84
2017-08-27T02:09:30.669Z,936.83
2017-08-27T02:09:59.394Z,936.88
2017-08-27T02:10:27.494Z,936.85
2017-08-27T02:10:55.611Z,936.84
2017-08-27T02:11:23.739Z,936.83
2017-08-27T02:11:51.756Z,936.84
2017-08-27T02:12:19.892Z,936.87
2017-08-27T02:12:47.903Z,936.81
2017-08-27T02:13:16.025Z,936.86
2017-08-27T02:13:43.917Z,936.83
2017-08-27T02:14:11.991Z,936.81
2017-08-27T02:14:39.918Z,936.82
2017-08-27T02:15:08.060Z,936.83
2017-08-27T02:15:36.184Z,936.83
2017-08-27T02:16:04.188Z,936.81
2017-08-27T02:16:32.282Z,936.83
2017-08-27T02:17:00.303Z,936.79
2017-08-27T02:17:28.297Z,936.79
2017-08-27T02:17:56.418Z,936.86
2017-08-27T02:18:24.403Z,936.82
2017-08-27T02:18:52.472Z,936.79
2017-08-27T02:19:20.605Z,936.8
2017-08-27T02:19:48.609Z,936.76
2017-08-27T02:20:16.637Z,936.8
2017-08-27T02:20:44.768Z,936.78
2017-08-27T02:21:12.604Z,936.8
2017-08-27T02:21:40.741Z,936.78
2017-08-27T02:22:08.850Z,936.79
2017-08-27T02:22:36.957Z,936.76
2017-08-27T02:23:05.081Z,936.77
2017-08-27T02:23:32.883Z,936.76
2017-08-27T02:24:01.030Z,936.79
2017-08-27T02:24:29.152Z,936.8
2017-08-27T02:24:57.191Z,936.77
2017-08-27T02:25:25.279Z,936.75
2017-08-27T02:25:53.297Z,936.74
2017-08-27T02:26:21.430Z,936.74
2017-08-27T02:26:49.451Z,936.73
2017-08-27T02:27:17.440Z,936.7
2017-08-27T02:27:45.557Z,936.72
2017-08-27T02:28:13.539Z,936.74
2017-08-27T02:28:41.643Z,936.72
2017-08-27T02:29:09.569Z,936.72
2017-08-27T02:29:37.714Z,936.71
2017-08-27T02:30:05.720Z,936.67
2017-08-27T02:30:33.717Z,936.71
2017-08-27T02:31:02.151Z,936.71
2017-08-27T02:31:30.253Z,936.72
2017-08-27T02:31:58.371Z,936.71
2017-08-27T02:32:26.395Z,936.7
2017-08-27T02:32:54.558Z,936.71
2017-08-27T02:33:22.620Z,936.7
2017-08-27T02:33:50.620Z,936.68
2017-08-27T02:34:18.617Z,936.67
2017-08-27T02:34:46.783Z,936.68
2017-08-27T02:35:14.599Z,936.73
2017-08-27T02:35:42.612Z,936.7
2017-08-27T02:36:10.753Z,936.7
2017-08-27T02:36:38.755Z,936.67
2017-08-27T02:37:06.888Z,936.69
2017-08-27T02:37:35.021Z,936.67
2017-08-27T02:38:03.062Z,936.64
2017-08-27T02:38:31.185Z,936.68
2017-08-27T02:38:59.128Z,936.64
2017-08-27T02:39:27.126Z,936.65
2017-08-27T02:39:55.256Z,936.68
2017-08-27T02:40:23.259Z,936.65
2017-08-27T02:40:51.338Z,936.65
2017-08-27T02:41:19.260Z,936.64
2017-08-27T02:41:47.361Z,936.68
2017-08-27T02:42:15.045Z,936.69
2017-08-27T02:42:42.957Z,936.64
2017-08-27T02:43:11.050Z,936.63
2017-08-27T02:43:39.061Z,936.65
2017-08-27T02:44:07.165Z,936.67
2017-08-27T02:44:35.319Z,936.66
2017-08-27T02:45:03.430Z,936.64
2017-08-27T02:45:31.407Z,936.66
2017-08-27T02:45:59.407Z,936.65
2017-08-27T02:46:27.278Z,936.62
2017-08-27T02:46:55.291Z,936.65
2017-08-27T02:47:23.396Z,936.63
2017-08-27T02:47:51.530Z,936.66
2017-08-27T02:48:19.351Z,936.68
2017-08-27T02:48:47.389Z,936.67
2017-08-27T02:49:15.400Z,936.69
2017-08-27T02:49:43.340Z,936.64
2017-08-27T02:50:11.339Z,936.67
2017-08-27T02:50:39.477Z,936.66
2017-08-27T02:51:07.600Z,936.64
2017-08-27T02:51:35.719Z,936.68
2017-08-27T02:52:03.725Z,936.68
2017-08-27T02:52:31.722Z,936.64
2017-08-27T02:52:59.792Z,936.67
2017-08-27T02:53:27.775Z,936.66
2017-08-27T02:53:55.798Z,936.65
2017-08-27T02:54:23.820Z,936.63
2017-08-27T02:54:51.719Z,936.64
2017-08-27T02:55:19.733Z,936.63
2017-08-27T02:55:47.739Z,936.63
2017-08-27T02:56:15.662Z,936.67
2017-08-27T02:56:43.748Z,936.6
2017-08-27T02:57:11.663Z,936.62
2017-08-27T02:57:39.574Z,936.63
2017-08-27T02:58:07.612Z,936.65
2017-08-27T02:58:35.520Z,936.61
2017-08-27T02:59:03.752Z,936.64
2017-08-27T02:59:31.811Z,936.6
2017-08-27T02:59:59.841Z,936.63
2017-08-27T03:00:27.866Z,936.63
2017-08-27T03:00:55.992Z,936.6
2017-08-27T03:01:24.121Z,936.61
2017-08-27T03:01:52.169Z,936.59
2017-08-27T03:02:20.269Z,936.6
2017-08-27T03:02:48.450Z,936.6
2017-08-27T03:03:16.530Z,936.59
2017-08-27T03:03:44.523Z,936.59
2017-08-27T03:04:12.632Z,936.54
2017-08-27T03:04:40.575Z,936.59
2017-08-27T03:05:08.488Z,936.55
2017-08-27T03:05:36.504Z,936.55
2017-08-27T03:06:04.605Z,936.55
2017-08-27T03:06:32.640Z,936.54
2017-08-27T03:07:00.626Z,936.52
2017-08-27T03:07:28.630Z,936.5
2017-08-27T03:07:56.686Z,936.52
2017-08-27T03:08:24.813Z,936.51
2017-08-27T03:08:52.710Z,936.48
2017-08-27T03:09:20.806Z,936.49
2017-08-27T03:09:48.803Z,936.52
2017-08-27T03:10:16.810Z,936.49
2017-08-27T03:10:44.857Z,936.53
2017-08-27T03:11:12.956Z,936.52
2017-08-27T03:11:40.957Z,936.54
2017-08-27T03:12:09.038Z,936.52
2017-08-27T03:12:37.048Z,936.52
2017-08-27T03:13:05.177Z,936.54
2017-08-27T03:13:33.197Z,936.52
2017-08-27T03:14:01.309Z,936.52
2017-08-27T03:14:29.317Z,936.55
2017-08-27T03:14:57.482Z,936.51
2017-08-27T03:15:25.573Z,936.52
2017-08-27T03:15:53.576Z,936.53
2017-08-27T03:16:21.690Z,936.53
2017-08-27T03:16:49.606Z,936.49
2017-08-27T03:17:17.740Z,936.52
2017-08-27T03:17:45.632Z,936.52
2017-08-27T03:18:13.750Z,936.54
2017-08-27T03:18:41.757Z,936.53
2017-08-27T03:19:10.059Z,936.52
2017-08-27T03:19:38.421Z,936.5
2017-08-27T03:20:06.593Z,936.5
2017-08-27T03:20:34.618Z,936.52
2017-08-27T03:21:02.703Z,936.53
2017-08-27T03:21:30.500Z,936.51
2017-08-27T03:21:58.611Z,936.5
2017-08-27T03:22:26.689Z,936.5
2017-08-27T03:22:54.606Z,936.47
2017-08-27T03:23:22.724Z,936.52
2017-08-27T03:23:50.721Z,936.48
2017-08-27T03:24:18.735Z,936.46
2017-08-27T03:24:46.740Z,936.47
2017-08-27T03:25:14.852Z,936.5
2017-08-27T03:25:42.813Z,936.44
2017-08-27T03:26:10.814Z,936.44
2017-08-27T03:26:38.698Z,936.44
2017-08-27T03:27:06.521Z,936.45
2017-08-27T03:27:34.540Z,936.46
2017-08-27T03:28:02.443Z,936.45
2017-08-27T03:28:30.433Z,936.44
2017-08-27T03:28:58.526Z,936.46
2017-08-27T03:29:26.662Z,936.42
2017-08-27T03:29:54.577Z,936.43
2017-08-27T03:30:22.604Z,936.47
2017-08-27T03:30:50.653Z,936.39
2017-08-27T03:31:18.765Z,936.41
2017-08-27T03:31:46.877Z,936.42
2017-08-27T03:32:15.026Z,936.39
2017-08-27T03:32:42.817Z,936.4
2017-08-27T03:33:10.847Z,936.41
2017-08-27T03:33:38.749Z,936.36
2017-08-27T03:34:06.767Z,936.37
2017-08-27T03:34:34.802Z,936.4
2017-08-27T03:35:02.513Z,936.46
2017-08-27T03:35:30.539Z,936.41
2017-08-27T03:35:58.578Z,936.4
2017-08-27T03:36:26.604Z,936.42
2017-08-27T03:36:54.721Z,936.4
2017-08-27T03:37:22.737Z,936.39
2017-08-27T03:37:50.818Z,936.43
2017-08-27T03:38:18.977Z,936.37
2017-08-27T03:38:47.101Z,936.36
2017-08-27T03:39:15.120Z,936.41
2017-08-27T03:39:43.019Z,936.4
2017-08-27T03:40:11.051Z,936.38
2017-08-27T03:40:39.181Z,936.39
2017-08-27T03:41:07.190Z,936.38
2017-08-27T03:41:35.085Z,936.37
2017-08-27T03:42:03.198Z,936.35
2017-08-27T03:42:31.136Z,936.37
2017-08-27T03:42:59.108Z,936.36
2017-08-27T03:43:27.194Z,936.37
2017-08-27T03:43:55.206Z,936.38
2017-08-27T03:44:23.228Z,936.37
2017-08-27T03:44:51.262Z,936.36
2017-08-27T03:45:19.168Z,936.35
2017-08-27T03:45:47.207Z,936.37
2017-08-27T03:46:15.206Z,936.34
2017-08-27T03:46:43.129Z,936.33
2017-08-27T03:47:11.253Z,936.31
2017-08-27T03:47:39.376Z,936.32
2017-08-27T03:48:07.361Z,936.35
2017-08-27T03:48:35.360Z,936.33
2017-08-27T03:49:03.354Z,936.32
2017-08-27T03:49:31.354Z,936.31
2017-08-27T03:49:59.264Z,936.33
2017-08-27T03:50:27.171Z,936.31
2017-08-27T03:50:55.273Z,936.32
2017-08-27T03:51:23.396Z,936.3
2017-08-27T03:51:51.510Z,936.3
2017-08-27T03:52:19.526Z,936.29
2017-08-27T03:52:47.537Z,936.3
2017-08-27T03:53:15.548Z,936.26
2017-08-27T03:53:43.699Z,936.27
2017-08-27T03:54:11.727Z,936.24
2017-08-27T03:54:39.733Z,936.27
2017-08-27T03:55:07.632Z,936.27
2017-08-27T03:55:36.134Z,936.26
2017-08-27T03:56:04.268Z,936.26
2017-08-27T03:56:32.280Z,936.25
2017-08-27T03:57:00.402Z,936.28
2017-08-27T03:57:28.388Z,936.27
2017-08-27T03:57:56.526Z,936.23
2017-08-27T03:58:24.623Z,936.22
2017-08-27T03:58:52.543Z,936.25
2017-08-27T03:59:20.444Z,936.25
2017-08-27T03:59:48.484Z,936.24
2017-08-27T04:00:16.387Z,936.21
2017-08-27T04:00:44.507Z,936.23
2017-08-27T04:01:12.660Z,936.21
2017-08-27T04:01:40.663Z,936.21
2017-08-27T04:02:08.698Z,936.22
2017-08-27T04:02:36.694Z,936.23
2017-08-27T04:03:04.691Z,936.23
2017-08-27T04:03:32.789Z,936.23
2017-08-27T04:04:00.783Z,936.22
2017-08-27T04:04:28.714Z,936.21
2017-08-27T04:04:56.813Z,936.19
2017-08-27T04:05:24.749Z,936.18
2017-08-27T04:05:52.828Z,936.17
2017-08-27T04:06:20.989Z,936.2
2017-08-27T04:06:49.122Z,936.2
2017-08-27T04:07:17.160Z,936.19
2017-08-27T04:07:45.175Z,936.19
2017-08-27T04:08:13.350Z,936.17
2017-08-27T04:08:41.475Z,936.17
2017-08-27T04:09:09.403Z,936.16
2017-08-27T04:09:37.382Z,936.2
2017-08-27T04:10:05.495Z,936.18
2017-08-27T04:10:33.637Z,936.18
2017-08-27T04:11:01.681Z,936.14
2017-08-27T04:11:29.782Z,936.15
2017-08-27T04:11:57.878Z,936.14
2017-08-27T04:12:25.916Z,936.17
2017-08-27T04:12:53.930Z,936.18
2017-08-27T04:13:22.043Z,936.16
2017-08-27T04:13:50.095Z,936.18
2017-08-27T04:14:18.229Z,936.17
2017-08-27T04:14:46.232Z,936.15
2017-08-27T04:15:14.470Z,936.13
2017-08-27T04:15:42.573Z,936.13
2017-08-27T04:16:10.489Z,936.14
2017-08-27T04:16:38.598Z,936.12
2017-08-27T04:17:06.515Z,936.14
2017-08-27T04:17:34.522Z,936.15
2017-08-27T04:18:02.518Z,936.13
2017-08-27T04:18:30.409Z,936.13
2017-08-27T04:18:58.531Z,936.13
2017-08-27T04:19:26.425Z,936.15
2017-08-27T04:19:54.560Z,936.13
2017-08-27T04:20:22.575Z,936.12
2017-08-27T04:20:50.508Z,936.13
2017-08-27T04:21:18.593Z,936.15
2017-08-27T04:21:46.730Z,936.17
2017-08-27T04:22:14.634Z,936.16
2017-08-27T04:22:42.441Z,936.14
2017-08-27T04:23:10.561Z,936.14
2017-08-27T04:23:38.686Z,936.1
2017-08-27T04:24:06.793Z,936.09
2017-08-27T04:24:34.720Z,936.09
2017-08-27T04:25:02.718Z,936.11
2017-08-27T04:25:30.813Z,936.09
2017-08-27T04:25:58.856Z,936.07
2017-08-27T04:26:26.977Z,936.08
2017-08-27T04:26:54.967Z,936.1
2017-08-27T04:27:23.089Z,936.07
2017-08-27T04:27:51.204Z,936.09
2017-08-27T04:28:19.286Z,936.06
2017-08-27T04:28:47.207Z,936.03
2017-08-27T04:29:15.235Z,936.03
2017-08-27T04:29:43.257Z,936.01
2017-08-27T04:30:11.391Z,936.02
2017-08-27T04:30:39.402Z,936.04
2017-08-27T04:31:07.504Z,936.02
2017-08-27T04:31:35.502Z,936
2017-08-27T04:32:03.531Z,936.01
2017-08-27T04:32:31.539Z,936.01
2017-08-27T04:32:59.388Z,935.99
2017-08-27T04:33:27.388Z,936.02
2017-08-27T04:33:55.376Z,935.98
2017-08-27T04:34:23.520Z,936
2017-08-27T04:34:51.508Z,935.94
2017-08-27T04:35:19.557Z,935.95
2017-08-27T04:35:47.685Z,935.97
2017-08-27T04:36:15.813Z,936.01
2017-08-27T04:36:43.650Z,935.92
2017-08-27T04:37:11.659Z,935.95
2017-08-27T04:37:39.673Z,935.95
2017-08-27T04:38:07.773Z,935.9
2017-08-27T04:38:35.782Z,935.94
2017-08-27T04:39:03.824Z,935.91
2017-08-27T04:39:31.889Z,935.9
2017-08-27T04:39:59.875Z,935.92
2017-08-27T04:40:27.909Z,935.93
2017-08-27T04:40:55.907Z,935.88
2017-08-27T04:41:23.951Z,935.92
2017-08-27T04:41:51.966Z,935.92
2017-08-27T04:42:20.018Z,935.91
2017-08-27T04:42:48.115Z,935.91
2017-08-27T04:43:16.229Z,935.9
2017-08-27T04:43:44.342Z,935.91
2017-08-27T04:44:12.445Z,935.91
2017-08-27T04:44:40.459Z,935.9
2017-08-27T04:45:08.459Z,935.89
2017-08-27T04:45:36.525Z,935.87
2017-08-27T04:46:04.656Z,935.88
2017-08-27T04:46:32.768Z,935.89
2017-08-27T04:47:00.750Z,935.88
2017-08-27T04:47:28.847Z,935.9
2017-08-27T04:47:56.764Z,935.87
2017-08-27T04:48:24.864Z,935.89
2017-08-27T04:48:52.870Z,935.89
2017-08-27T04:49:20.893Z,935.85
2017-08-27T04:49:48.823Z,935.88
2017-08-27T04:50:16.946Z,935.87
2017-08-27T04:50:44.943Z,935.86
2017-08-27T04:51:12.955Z,935.85
2017-08-27T04:51:40.969Z,935.87
2017-08-27T04:52:09.102Z,935.85
2017-08-27T04:52:37.240Z,935.86
2017-08-27T04:53:05.285Z,935.82
2017-08-27T04:53:33.210Z,935.85
2017-08-27T04:54:01.347Z,935.86
2017-08-27T04:54:29.356Z,935.84
2017-08-27T04:54:57.397Z,935.84
2017-08-27T04:55:25.410Z,935.85
2017-08-27T04:55:53.531Z,935.85
2017-08-27T04:56:21.654Z,935.85
2017-08-27T04:56:49.772Z,935.83
2017-08-27T04:57:17.597Z,935.83
2017-08-27T04:57:45.686Z,935.84
2017-08-27T04:58:13.604Z,935.85
2017-08-27T04:58:41.719Z,935.85
2017-08-27T04:59:09.537Z,935.79
2017-08-27T04:59:37.507Z,935.82
2017-08-27T05:00:05.520Z,935.84
2017-08-27T05:00:33.643Z,935.83
2017-08-27T05:01:01.562Z,935.85
2017-08-27T05:01:29.503Z,935.84
2017-08-27T05:01:57.611Z,935.83
2017-08-27T05:02:25.730Z,935.82
2017-08-27T05:02:53.817Z,935.86
2017-08-27T05:03:21.846Z,935.84
2017-08-27T05:03:49.952Z,935.87
2017-08-27T05:04:17.960Z,935.82
2017-08-27T05:04:45.991Z,935.85
2017-08-27T05:05:14.125Z,935.83
2017-08-27T05:05:42.248Z,935.85
2017-08-27T05:06:10.322Z,935.87
2017-08-27T05:06:38.335Z,935.87
2017-08-27T05:07:06.232Z,935.88
2017-08-27T05:07:34.365Z,935.89
2017-08-27T05:08:02.477Z,935.88
2017-08-27T05:08:30.378Z,935.92
2017-08-27T05:08:58.312Z,935.9
2017-08-27T05:09:26.291Z,935.88
2017-08-27T05:09:54.404Z,935.87
2017-08-27T05:10:22.421Z,935.9
2017-08-27T05:10:50.428Z,935.89
2017-08-27T05:11:18.433Z,935.92
2017-08-27T05:11:46.449Z,935.93
2017-08-27T05:12:14.370Z,935.91
2017-08-27T05:12:42.504Z,935.91
2017-08-27T05:13:10.537Z,935.85
2017-08-27T05:13:38.553Z,935.87
2017-08-27T05:14:06.562Z,935.89
2017-08-27T05:14:34.660Z,935.88
2017-08-27T05:15:02.765Z,935.88
2017-08-27T05:15:30.869Z,935.87
2017-08-27T05:15:58.726Z,935.86
2017-08-27T05:16:26.747Z,935.84
2017-08-27T05:16:54.771Z,935.87
2017-08-27T05:17:22.892Z,935.88
2017-08-27T05:17:50.876Z,935.86
2017-08-27T05:18:18.776Z,935.86
2017-08-27T05:18:46.789Z,935.86
2017-08-27T05:19:14.739Z,935.86
2017-08-27T05:19:42.765Z,935.85
2017-08-27T05:20:10.781Z,935.82
2017-08-27T05:20:38.892Z,935.83
2017-08-27T05:21:06.811Z,935.83
2017-08-27T05:21:34.915Z,935.82
2017-08-27T05:22:03.048Z,935.81
2017-08-27T05:22:31.137Z,935.82
2017-08-27T05:22:59.118Z,935.85
2017-08-27T05:23:27.653Z,935.82
2017-08-27T05:23:55.757Z,935.84
2017-08-27T05:24:23.740Z,935.79
2017-08-27T05:24:51.759Z,935.81
2017-08-27T05:25:19.783Z,935.79
2017-08-27T05:25:47.895Z,935.75
2017-08-27T05:26:15.931Z,935.78
2017-08-27T05:26:43.967Z,935.8
2017-08-27T05:27:11.973Z,935.72
2017-08-27T05:27:40.143Z,935.7
2017-08-27T05:28:08.169Z,935.72
2017-08-27T05:28:36.282Z,935.71
2017-08-27T05:29:04.392Z,935.73
2017-08-27T05:29:32.530Z,935.72
2017-08-27T05:30:00.314Z,935.69
2017-08-27T05:30:28.469Z,935.72
2017-08-27T05:30:56.457Z,935.68
2017-08-27T05:31:24.281Z,935.71
2017-08-27T05:31:52.331Z,935.72
2017-08-27T05:32:20.145Z,935.66
2017-08-27T05:32:48.154Z,935.67
2017-08-27T05:33:16.163Z,935.63
2017-08-27T05:33:44.231Z,935.63
2017-08-27T05:34:12.257Z,935.61
2017-08-27T05:34:40.260Z,935.61
2017-08-27T05:35:08.413Z,935.61
2017-08-27T05:35:36.547Z,935.63
2017-08-27T05:36:04.454Z,935.58
2017-08-27T05:36:32.356Z,935.59
2017-08-27T05:37:00.362Z,935.6
2017-08-27T05:37:28.432Z,935.61
2017-08-27T05:37:56.360Z,935.6
2017-08-27T05:38:24.281Z,935.57
2017-08-27T05:38:52.268Z,935.58
2017-08-27T05:39:20.318Z,935.58
2017-08-27T05:39:48.218Z,935.59
2017-08-27T05:40:16.148Z,935.58
2017-08-27T05:40:44.382Z,935.58
2017-08-27T05:41:12.511Z,935.56
2017-08-27T05:41:40.520Z,935.57
2017-08-27T05:42:08.602Z,935.57
2017-08-27T05:42:36.728Z,935.57
2017-08-27T05:43:04.812Z,935.56
2017-08-27T05:43:32.928Z,935.56
2017-08-27T05:44:01.036Z,935.56
2017-08-27T05:44:28.848Z,935.54
2017-08-27T05:44:56.959Z,935.55
2017-08-27T05:45:24.916Z,935.54
2017-08-27T05:45:52.923Z,935.59
2017-08-27T05:46:20.930Z,935.56
2017-08-27T05:46:48.963Z,935.54
2017-08-27T05:47:17.080Z,935.51
2017-08-27T05:47:44.975Z,935.55
2017-08-27T05:48:12.906Z,935.5
2017-08-27T05:48:41.069Z,935.56
2017-08-27T05:49:09.166Z,935.5
2017-08-27T05:49:37.169Z,935.51
2017-08-27T05:50:05.277Z,935.5
2017-08-27T05:50:33.116Z,935.48
2017-08-27T05:51:01.237Z,935.48